sensor_id;sensor_type;location;lat;lon;timestamp;P1;durP1;ratioP1;P2;durP2;ratioP2
34489;SDS011;20730;49.372;7.324;2023-08-06T00:00:26;6.80;;;3.15;;
34489;SDS011;20730;49.372;7.324;2023-08-06T00:02:53;4.63;;;3.15;;
34489;SDS011;20730;49.372;7.324;2023-08-06T00:05:20;6.07;;;3.38;;
34489;SDS011;20730;49.372;7.324;2023-08-06T00:07:50;5.53;;;3.23;;
34489;SDS011;20730;49.372;7.324;2023-08-06T00:10:17;4.32;;;3.10;;
34489;SDS011;20730;49.372;7.324;2023-08-06T00:12:44;7.15;;;2.78;;
34489;SDS011;20730;49.372;7.324;2023-08-06T00:15:11;6.85;;;3.03;;
34489;SDS011;20730;49.372;7.324;2023-08-06T00:17:38;6.35;;;3.10;;
34489;SDS011;20730;49.372;7.324;2023-08-06T00:20:05;5.00;;;3.17;;
34489;SDS011;20730;49.372;7.324;2023-08-06T00:22:33;6.45;;;2.83;;
34489;SDS011;20730;49.372;7.324;2023-08-06T00:25:04;7.32;;;3.20;;
34489;SDS011;20730;49.372;7.324;2023-08-06T00:27:32;5.00;;;2.83;;
34489;SDS011;20730;49.372;7.324;2023-08-06T00:29:59;7.13;;;3.22;;
34489;SDS011;20730;49.372;7.324;2023-08-06T00:32:27;5.15;;;2.97;;
34489;SDS011;20730;49.372;7.324;2023-08-06T00:34:54;6.22;;;3.20;;
34489;SDS011;20730;49.372;7.324;2023-08-06T00:37:21;4.30;;;3.10;;
34489;SDS011;20730;49.372;7.324;2023-08-06T00:39:47;5.07;;;3.20;;
34489;SDS011;20730;49.372;7.324;2023-08-06T00:42:14;6.60;;;3.22;;
34489;SDS011;20730;49.372;7.324;2023-08-06T00:44:42;4.57;;;3.20;;
34489;SDS011;20730;49.372;7.324;2023-08-06T00:47:09;7.22;;;2.80;;
34489;SDS011;20730;49.372;7.324;2023-08-06T00:49:36;4.88;;;2.92;;
34489;SDS011;20730;49.372;7.324;2023-08-06T00:52:03;4.88;;;2.85;;
34489;SDS011;20730;49.372;7.324;2023-08-06T00:54:31;5.65;;;2.83;;
34489;SDS011;20730;49.372;7.324;2023-08-06T00:56:58;4.75;;;2.83;;
34489;SDS011;20730;49.372;7.324;2023-08-06T00:59:27;4.80;;;3.00;;
34489;SDS011;20730;49.372;7.324;2023-08-06T01:01:55;4.75;;;2.67;;
34489;SDS011;20730;49.372;7.324;2023-08-06T01:04:22;9.07;;;2.88;;
34489;SDS011;20730;49.372;7.324;2023-08-06T01:06:59;5.43;;;3.15;;
34489;SDS011;20730;49.372;7.324;2023-08-06T01:09:42;4.65;;;2.65;;
34489;SDS011;20730;49.372;7.324;2023-08-06T01:12:17;4.38;;;2.50;;
34489;SDS011;20730;49.372;7.324;2023-08-06T01:17:15;4.65;;;2.80;;
34489;SDS011;20730;49.372;7.324;2023-08-06T01:19:42;4.93;;;2.70;;
34489;SDS011;20730;49.372;7.324;2023-08-06T01:22:09;3.78;;;2.60;;
34489;SDS011;20730;49.372;7.324;2023-08-06T01:24:36;4.93;;;2.75;;
34489;SDS011;20730;49.372;7.324;2023-08-06T01:27:11;3.55;;;2.47;;
34489;SDS011;20730;49.372;7.324;2023-08-06T01:29:41;6.47;;;2.55;;
34489;SDS011;20730;49.372;7.324;2023-08-06T01:32:13;9.73;;;2.60;;
34489;SDS011;20730;49.372;7.324;2023-08-06T01:34:41;4.15;;;2.28;;
34489;SDS011;20730;49.372;7.324;2023-08-06T01:37:10;5.10;;;2.40;;
34489;SDS011;20730;49.372;7.324;2023-08-06T01:39:37;6.47;;;2.50;;
34489;SDS011;20730;49.372;7.324;2023-08-06T01:42:06;5.72;;;2.08;;
34489;SDS011;20730;49.372;7.324;2023-08-06T01:44:33;5.72;;;1.92;;
34489;SDS011;20730;49.372;7.324;2023-08-06T01:47:00;7.65;;;2.08;;
34489;SDS011;20730;49.372;7.324;2023-08-06T01:49:26;7.78;;;2.03;;
34489;SDS011;20730;49.372;7.324;2023-08-06T01:51:53;4.60;;;1.63;;
34489;SDS011;20730;49.372;7.324;2023-08-06T01:54:20;7.18;;;2.00;;
34489;SDS011;20730;49.372;7.324;2023-08-06T01:56:46;4.88;;;1.70;;
34489;SDS011;20730;49.372;7.324;2023-08-06T01:59:13;6.05;;;1.75;;
34489;SDS011;20730;49.372;7.324;2023-08-06T02:01:40;4.93;;;1.60;;
34489;SDS011;20730;49.372;7.324;2023-08-06T02:04:07;4.90;;;1.33;;
34489;SDS011;20730;49.372;7.324;2023-08-06T02:06:34;6.57;;;1.45;;
34489;SDS011;20730;49.372;7.324;2023-08-06T02:09:01;5.07;;;1.63;;
34489;SDS011;20730;49.372;7.324;2023-08-06T02:11:27;3.15;;;1.40;;
34489;SDS011;20730;49.372;7.324;2023-08-06T02:13:54;2.67;;;1.27;;
34489;SDS011;20730;49.372;7.324;2023-08-06T02:16:21;3.17;;;1.20;;
34489;SDS011;20730;49.372;7.324;2023-08-06T02:18:47;4.70;;;1.58;;
34489;SDS011;20730;49.372;7.324;2023-08-06T02:21:24;3.55;;;1.40;;
34489;SDS011;20730;49.372;7.324;2023-08-06T02:23:50;3.53;;;1.27;;
34489;SDS011;20730;49.372;7.324;2023-08-06T02:26:17;3.20;;;1.40;;
34489;SDS011;20730;49.372;7.324;2023-08-06T02:28:44;3.42;;;1.13;;
34489;SDS011;20730;49.372;7.324;2023-08-06T02:31:13;2.75;;;1.30;;
34489;SDS011;20730;49.372;7.324;2023-08-06T02:33:40;2.53;;;1.10;;
34489;SDS011;20730;49.372;7.324;2023-08-06T02:36:07;5.75;;;1.33;;
34489;SDS011;20730;49.372;7.324;2023-08-06T02:38:33;1.73;;;1.00;;
34489;SDS011;20730;49.372;7.324;2023-08-06T02:41:04;4.50;;;1.25;;
34489;SDS011;20730;49.372;7.324;2023-08-06T02:43:31;2.08;;;1.02;;
34489;SDS011;20730;49.372;7.324;2023-08-06T02:45:58;3.60;;;1.30;;
34489;SDS011;20730;49.372;7.324;2023-08-06T02:48:26;2.15;;;0.85;;
34489;SDS011;20730;49.372;7.324;2023-08-06T02:50:52;2.55;;;1.00;;
34489;SDS011;20730;49.372;7.324;2023-08-06T02:53:19;1.90;;;1.00;;
34489;SDS011;20730;49.372;7.324;2023-08-06T02:55:48;1.27;;;0.77;;
34489;SDS011;20730;49.372;7.324;2023-08-06T02:58:18;1.45;;;0.70;;
34489;SDS011;20730;49.372;7.324;2023-08-06T03:01:02;0.85;;;0.50;;
34489;SDS011;20730;49.372;7.324;2023-08-06T03:03:33;1.83;;;0.40;;
34489;SDS011;20730;49.372;7.324;2023-08-06T03:06:02;1.52;;;0.45;;
34489;SDS011;20730;49.372;7.324;2023-08-06T03:08:42;1.80;;;0.40;;
34489;SDS011;20730;49.372;7.324;2023-08-06T03:11:10;0.77;;;0.50;;
34489;SDS011;20730;49.372;7.324;2023-08-06T03:13:38;1.15;;;0.40;;
34489;SDS011;20730;49.372;7.324;2023-08-06T03:16:04;1.75;;;0.50;;
34489;SDS011;20730;49.372;7.324;2023-08-06T03:18:32;4.32;;;0.60;;
34489;SDS011;20730;49.372;7.324;2023-08-06T03:21:02;1.52;;;0.40;;
34489;SDS011;20730;49.372;7.324;2023-08-06T03:23:29;1.48;;;0.47;;
34489;SDS011;20730;49.372;7.324;2023-08-06T03:26:00;1.17;;;0.50;;
34489;SDS011;20730;49.372;7.324;2023-08-06T03:28:30;0.85;;;0.40;;
34489;SDS011;20730;49.372;7.324;2023-08-06T03:31:01;1.33;;;0.45;;
34489;SDS011;20730;49.372;7.324;2023-08-06T03:33:33;1.65;;;0.70;;
34489;SDS011;20730;49.372;7.324;2023-08-06T03:36:02;2.90;;;0.80;;
34489;SDS011;20730;49.372;7.324;2023-08-06T03:38:31;1.48;;;0.73;;
34489;SDS011;20730;49.372;7.324;2023-08-06T03:40:59;2.65;;;0.93;;
34489;SDS011;20730;49.372;7.324;2023-08-06T03:43:25;5.32;;;1.33;;
34489;SDS011;20730;49.372;7.324;2023-08-06T03:45:53;2.90;;;1.10;;
34489;SDS011;20730;49.372;7.324;2023-08-06T03:48:20;2.15;;;1.23;;
34489;SDS011;20730;49.372;7.324;2023-08-06T03:50:47;1.58;;;1.10;;
34489;SDS011;20730;49.372;7.324;2023-08-06T03:53:15;2.22;;;1.20;;
34489;SDS011;20730;49.372;7.324;2023-08-06T03:55:43;2.70;;;1.00;;
34489;SDS011;20730;49.372;7.324;2023-08-06T03:58:09;1.17;;;0.80;;
34489;SDS011;20730;49.372;7.324;2023-08-06T04:00:36;2.65;;;1.20;;
34489;SDS011;20730;49.372;7.324;2023-08-06T04:03:03;3.00;;;1.10;;
34489;SDS011;20730;49.372;7.324;2023-08-06T04:05:33;2.85;;;1.00;;
34489;SDS011;20730;49.372;7.324;2023-08-06T04:07:59;1.50;;;0.93;;
34489;SDS011;20730;49.372;7.324;2023-08-06T04:10:27;2.47;;;0.88;;
34489;SDS011;20730;49.372;7.324;2023-08-06T04:12:53;2.13;;;0.90;;
34489;SDS011;20730;49.372;7.324;2023-08-06T04:15:20;2.67;;;0.82;;
34489;SDS011;20730;49.372;7.324;2023-08-06T04:17:47;3.08;;;0.95;;
34489;SDS011;20730;49.372;7.324;2023-08-06T04:20:13;5.28;;;1.10;;
34489;SDS011;20730;49.372;7.324;2023-08-06T04:22:40;2.00;;;1.20;;
34489;SDS011;20730;49.372;7.324;2023-08-06T04:25:07;3.33;;;0.85;;
34489;SDS011;20730;49.372;7.324;2023-08-06T04:27:34;2.60;;;1.00;;
34489;SDS011;20730;49.372;7.324;2023-08-06T04:30:01;3.53;;;0.93;;
34489;SDS011;20730;49.372;7.324;2023-08-06T04:32:28;2.65;;;0.80;;
34489;SDS011;20730;49.372;7.324;2023-08-06T04:34:56;2.17;;;1.05;;
34489;SDS011;20730;49.372;7.324;2023-08-06T04:37:24;1.63;;;0.93;;
34489;SDS011;20730;49.372;7.324;2023-08-06T04:39:50;2.03;;;1.05;;
34489;SDS011;20730;49.372;7.324;2023-08-06T04:42:18;1.23;;;0.98;;
34489;SDS011;20730;49.372;7.324;2023-08-06T04:44:45;4.38;;;1.40;;
34489;SDS011;20730;49.372;7.324;2023-08-06T04:47:13;4.43;;;1.40;;
34489;SDS011;20730;49.372;7.324;2023-08-06T04:49:41;1.92;;;1.33;;
34489;SDS011;20730;49.372;7.324;2023-08-06T04:52:08;2.33;;;1.38;;
34489;SDS011;20730;49.372;7.324;2023-08-06T04:54:34;7.28;;;1.35;;
34489;SDS011;20730;49.372;7.324;2023-08-06T04:57:01;2.63;;;1.40;;
34489;SDS011;20730;49.372;7.324;2023-08-06T04:59:27;2.05;;;1.10;;
34489;SDS011;20730;49.372;7.324;2023-08-06T05:01:54;3.03;;;1.48;;
34489;SDS011;20730;49.372;7.324;2023-08-06T05:04:21;1.60;;;1.20;;
34489;SDS011;20730;49.372;7.324;2023-08-06T05:06:48;4.40;;;1.45;;
34489;SDS011;20730;49.372;7.324;2023-08-06T05:09:15;1.38;;;1.27;;
34489;SDS011;20730;49.372;7.324;2023-08-06T05:11:42;3.47;;;1.50;;
34489;SDS011;20730;49.372;7.324;2023-08-06T05:14:08;2.45;;;1.60;;
34489;SDS011;20730;49.372;7.324;2023-08-06T05:16:35;1.70;;;1.60;;
34489;SDS011;20730;49.372;7.324;2023-08-06T05:19:02;2.67;;;1.40;;
34489;SDS011;20730;49.372;7.324;2023-08-06T05:21:29;2.38;;;1.10;;
34489;SDS011;20730;49.372;7.324;2023-08-06T05:23:55;1.83;;;1.40;;
34489;SDS011;20730;49.372;7.324;2023-08-06T05:26:22;3.75;;;1.10;;
34489;SDS011;20730;49.372;7.324;2023-08-06T05:28:49;2.40;;;1.33;;
34489;SDS011;20730;49.372;7.324;2023-08-06T05:31:15;3.22;;;1.40;;
34489;SDS011;20730;49.372;7.324;2023-08-06T05:33:42;1.92;;;1.30;;
34489;SDS011;20730;49.372;7.324;2023-08-06T05:36:09;1.73;;;0.90;;
34489;SDS011;20730;49.372;7.324;2023-08-06T05:38:36;2.30;;;1.00;;
34489;SDS011;20730;49.372;7.324;2023-08-06T05:41:02;3.20;;;1.10;;
34489;SDS011;20730;49.372;7.324;2023-08-06T05:43:29;1.50;;;1.10;;
34489;SDS011;20730;49.372;7.324;2023-08-06T05:45:56;2.75;;;0.90;;
34489;SDS011;20730;49.372;7.324;2023-08-06T05:48:23;1.33;;;0.80;;
34489;SDS011;20730;49.372;7.324;2023-08-06T05:50:51;1.15;;;0.70;;
34489;SDS011;20730;49.372;7.324;2023-08-06T05:53:18;1.90;;;0.75;;
34489;SDS011;20730;49.372;7.324;2023-08-06T05:55:45;1.35;;;1.00;;
34489;SDS011;20730;49.372;7.324;2023-08-06T05:58:11;1.55;;;1.00;;
34489;SDS011;20730;49.372;7.324;2023-08-06T06:00:38;1.08;;;0.80;;
34489;SDS011;20730;49.372;7.324;2023-08-06T06:03:04;1.90;;;0.70;;
34489;SDS011;20730;49.372;7.324;2023-08-06T06:05:31;2.17;;;0.82;;
34489;SDS011;20730;49.372;7.324;2023-08-06T06:07:58;1.52;;;0.50;;
34489;SDS011;20730;49.372;7.324;2023-08-06T06:10:24;1.05;;;0.50;;
34489;SDS011;20730;49.372;7.324;2023-08-06T06:12:51;1.75;;;0.52;;
34489;SDS011;20730;49.372;7.324;2023-08-06T06:15:17;0.28;;;0.28;;
34489;SDS011;20730;49.372;7.324;2023-08-06T06:17:44;0.20;;;0.20;;
34489;SDS011;20730;49.372;7.324;2023-08-06T06:20:11;0.43;;;0.30;;
34489;SDS011;20730;49.372;7.324;2023-08-06T06:22:37;0.28;;;0.28;;
34489;SDS011;20730;49.372;7.324;2023-08-06T06:25:04;0.30;;;0.30;;
34489;SDS011;20730;49.372;7.324;2023-08-06T06:27:31;0.70;;;0.40;;
34489;SDS011;20730;49.372;7.324;2023-08-06T06:29:58;0.95;;;0.70;;
34489;SDS011;20730;49.372;7.324;2023-08-06T06:32:25;3.78;;;0.80;;
34489;SDS011;20730;49.372;7.324;2023-08-06T06:34:51;1.58;;;0.70;;
34489;SDS011;20730;49.372;7.324;2023-08-06T06:37:18;1.20;;;0.77;;
34489;SDS011;20730;49.372;7.324;2023-08-06T06:39:45;4.00;;;0.90;;
34489;SDS011;20730;49.372;7.324;2023-08-06T06:42:11;0.80;;;0.80;;
34489;SDS011;20730;49.372;7.324;2023-08-06T06:44:43;1.60;;;1.10;;
34489;SDS011;20730;49.372;7.324;2023-08-06T06:47:10;1.00;;;0.90;;
34489;SDS011;20730;49.372;7.324;2023-08-06T06:49:36;1.88;;;1.20;;
34489;SDS011;20730;49.372;7.324;2023-08-06T06:52:03;1.08;;;0.88;;
34489;SDS011;20730;49.372;7.324;2023-08-06T06:54:30;0.88;;;0.80;;
34489;SDS011;20730;49.372;7.324;2023-08-06T06:56:57;0.70;;;0.70;;
34489;SDS011;20730;49.372;7.324;2023-08-06T06:59:23;1.67;;;0.80;;
34489;SDS011;20730;49.372;7.324;2023-08-06T07:01:50;2.58;;;0.88;;
34489;SDS011;20730;49.372;7.324;2023-08-06T07:04:17;2.25;;;0.80;;
34489;SDS011;20730;49.372;7.324;2023-08-06T07:06:44;0.73;;;0.70;;
34489;SDS011;20730;49.372;7.324;2023-08-06T07:09:11;0.68;;;0.68;;
34489;SDS011;20730;49.372;7.324;2023-08-06T07:11:37;1.48;;;0.80;;
34489;SDS011;20730;49.372;7.324;2023-08-06T07:14:04;1.17;;;0.75;;
34489;SDS011;20730;49.372;7.324;2023-08-06T07:16:30;4.13;;;0.90;;
34489;SDS011;20730;49.372;7.324;2023-08-06T07:18:57;0.93;;;0.60;;
34489;SDS011;20730;49.372;7.324;2023-08-06T07:21:24;0.95;;;0.40;;
34489;SDS011;20730;49.372;7.324;2023-08-06T07:23:50;0.52;;;0.40;;
34489;SDS011;20730;49.372;7.324;2023-08-06T07:26:17;0.20;;;0.20;;
34489;SDS011;20730;49.372;7.324;2023-08-06T07:28:44;1.25;;;0.40;;
34489;SDS011;20730;49.372;7.324;2023-08-06T07:31:11;0.90;;;0.30;;
34489;SDS011;20730;49.372;7.324;2023-08-06T07:33:38;0.98;;;0.30;;
34489;SDS011;20730;49.372;7.324;2023-08-06T07:36:11;0.20;;;0.20;;
34489;SDS011;20730;49.372;7.324;2023-08-06T07:38:39;0.50;;;0.40;;
34489;SDS011;20730;49.372;7.324;2023-08-06T07:41:06;0.57;;;0.40;;
34489;SDS011;20730;49.372;7.324;2023-08-06T07:43:33;0.75;;;0.20;;
34489;SDS011;20730;49.372;7.324;2023-08-06T07:46:00;1.00;;;0.30;;
34489;SDS011;20730;49.372;7.324;2023-08-06T07:48:27;0.30;;;0.30;;
34489;SDS011;20730;49.372;7.324;2023-08-06T07:50:54;0.52;;;0.15;;
34489;SDS011;20730;49.372;7.324;2023-08-06T07:53:21;1.40;;;0.30;;
34489;SDS011;20730;49.372;7.324;2023-08-06T07:55:53;0.20;;;0.20;;
34489;SDS011;20730;49.372;7.324;2023-08-06T07:58:20;0.40;;;0.30;;
34489;SDS011;20730;49.372;7.324;2023-08-06T08:00:47;0.85;;;0.25;;
34489;SDS011;20730;49.372;7.324;2023-08-06T08:03:14;1.25;;;0.50;;
34489;SDS011;20730;49.372;7.324;2023-08-06T08:05:41;0.73;;;0.20;;
34489;SDS011;20730;49.372;7.324;2023-08-06T08:08:09;0.57;;;0.20;;
34489;SDS011;20730;49.372;7.324;2023-08-06T08:10:36;0.30;;;0.30;;
34489;SDS011;20730;49.372;7.324;2023-08-06T08:13:04;0.20;;;0.20;;
34489;SDS011;20730;49.372;7.324;2023-08-06T08:15:31;0.25;;;0.25;;
34489;SDS011;20730;49.372;7.324;2023-08-06T08:17:58;0.38;;;0.35;;
34489;SDS011;20730;49.372;7.324;2023-08-06T08:20:26;0.22;;;0.20;;
34489;SDS011;20730;49.372;7.324;2023-08-06T08:22:59;1.15;;;0.30;;
34489;SDS011;20730;49.372;7.324;2023-08-06T08:25:26;0.95;;;0.30;;
34489;SDS011;20730;49.372;7.324;2023-08-06T08:30:23;0.20;;;0.20;;
34489;SDS011;20730;49.372;7.324;2023-08-06T08:32:51;0.80;;;0.20;;
34489;SDS011;20730;49.372;7.324;2023-08-06T08:35:18;0.40;;;0.20;;
34489;SDS011;20730;49.372;7.324;2023-08-06T08:37:44;0.68;;;0.20;;
34489;SDS011;20730;49.372;7.324;2023-08-06T08:40:11;0.20;;;0.20;;
34489;SDS011;20730;49.372;7.324;2023-08-06T08:42:38;0.22;;;0.22;;
34489;SDS011;20730;49.372;7.324;2023-08-06T08:45:05;0.22;;;0.13;;
34489;SDS011;20730;49.372;7.324;2023-08-06T08:47:34;0.57;;;0.30;;
34489;SDS011;20730;49.372;7.324;2023-08-06T08:50:01;0.47;;;0.20;;
34489;SDS011;20730;49.372;7.324;2023-08-06T08:52:28;0.40;;;0.20;;
34489;SDS011;20730;49.372;7.324;2023-08-06T08:54:59;1.20;;;0.20;;
34489;SDS011;20730;49.372;7.324;2023-08-06T08:57:27;0.20;;;0.20;;
34489;SDS011;20730;49.372;7.324;2023-08-06T08:59:54;0.25;;;0.10;;
34489;SDS011;20730;49.372;7.324;2023-08-06T09:02:21;1.23;;;0.20;;
34489;SDS011;20730;49.372;7.324;2023-08-06T09:04:50;1.02;;;0.30;;
34489;SDS011;20730;49.372;7.324;2023-08-06T09:07:17;0.73;;;0.30;;
34489;SDS011;20730;49.372;7.324;2023-08-06T09:09:46;0.30;;;0.10;;
34489;SDS011;20730;49.372;7.324;2023-08-06T09:12:16;0.25;;;0.20;;
34489;SDS011;20730;49.372;7.324;2023-08-06T09:14:43;0.45;;;0.20;;
34489;SDS011;20730;49.372;7.324;2023-08-06T09:17:10;0.20;;;0.20;;
34489;SDS011;20730;49.372;7.324;2023-08-06T09:19:37;1.10;;;0.30;;
34489;SDS011;20730;49.372;7.324;2023-08-06T09:22:04;0.30;;;0.30;;
34489;SDS011;20730;49.372;7.324;2023-08-06T09:24:38;0.63;;;0.25;;
34489;SDS011;20730;49.372;7.324;2023-08-06T09:27:06;0.40;;;0.30;;
34489;SDS011;20730;49.372;7.324;2023-08-06T09:29:39;0.38;;;0.30;;
34489;SDS011;20730;49.372;7.324;2023-08-06T09:32:07;0.45;;;0.28;;
34489;SDS011;20730;49.372;7.324;2023-08-06T09:34:33;1.02;;;0.40;;
34489;SDS011;20730;49.372;7.324;2023-08-06T09:37:00;1.75;;;0.20;;
34489;SDS011;20730;49.372;7.324;2023-08-06T09:39:28;1.38;;;0.47;;
34489;SDS011;20730;49.372;7.324;2023-08-06T09:41:57;0.30;;;0.20;;
34489;SDS011;20730;49.372;7.324;2023-08-06T09:44:25;0.30;;;0.30;;
34489;SDS011;20730;49.372;7.324;2023-08-06T09:46:54;0.63;;;0.35;;
34489;SDS011;20730;49.372;7.324;2023-08-06T09:49:28;1.20;;;0.50;;
34489;SDS011;20730;49.372;7.324;2023-08-06T09:52:11;0.30;;;0.30;;
34489;SDS011;20730;49.372;7.324;2023-08-06T09:54:39;0.55;;;0.32;;
34489;SDS011;20730;49.372;7.324;2023-08-06T09:57:06;0.85;;;0.40;;
34489;SDS011;20730;49.372;7.324;2023-08-06T09:59:33;0.35;;;0.30;;
34489;SDS011;20730;49.372;7.324;2023-08-06T10:02:00;0.40;;;0.40;;
34489;SDS011;20730;49.372;7.324;2023-08-06T10:04:27;0.20;;;0.20;;
34489;SDS011;20730;49.372;7.324;2023-08-06T10:07:06;0.70;;;0.40;;
34489;SDS011;20730;49.372;7.324;2023-08-06T10:09:33;2.53;;;0.68;;
34489;SDS011;20730;49.372;7.324;2023-08-06T10:12:00;0.93;;;0.80;;
34489;SDS011;20730;49.372;7.324;2023-08-06T10:14:31;0.50;;;0.50;;
34489;SDS011;20730;49.372;7.324;2023-08-06T10:16:59;0.60;;;0.55;;
34489;SDS011;20730;49.372;7.324;2023-08-06T10:19:27;1.25;;;0.60;;
34489;SDS011;20730;49.372;7.324;2023-08-06T10:22:13;0.93;;;0.40;;
34489;SDS011;20730;49.372;7.324;2023-08-06T10:27:28;1.20;;;0.70;;
34489;SDS011;20730;49.372;7.324;2023-08-06T10:30:20;1.23;;;0.60;;
34489;SDS011;20730;49.372;7.324;2023-08-06T10:32:48;3.08;;;0.88;;
34489;SDS011;20730;49.372;7.324;2023-08-06T10:38:03;1.17;;;0.85;;
34489;SDS011;20730;49.372;7.324;2023-08-06T10:43:26;1.88;;;0.90;;
34489;SDS011;20730;49.372;7.324;2023-08-06T10:45:54;4.28;;;1.33;;
34489;SDS011;20730;49.372;7.324;2023-08-06T10:48:54;6.72;;;1.00;;
34489;SDS011;20730;49.372;7.324;2023-08-06T10:51:14;1.52;;;1.00;;
34489;SDS011;20730;49.372;7.324;2023-08-06T10:53:47;1.25;;;0.98;;
34489;SDS011;20730;49.372;7.324;2023-08-06T10:56:15;2.10;;;0.90;;
34489;SDS011;20730;49.372;7.324;2023-08-06T10:58:43;1.48;;;0.70;;
34489;SDS011;20730;49.372;7.324;2023-08-06T11:01:10;2.35;;;1.27;;
34489;SDS011;20730;49.372;7.324;2023-08-06T11:03:38;1.95;;;0.98;;
34489;SDS011;20730;49.372;7.324;2023-08-06T11:06:08;4.82;;;1.08;;
34489;SDS011;20730;49.372;7.324;2023-08-06T11:11:12;4.35;;;1.13;;
34489;SDS011;20730;49.372;7.324;2023-08-06T11:13:41;3.10;;;1.10;;
34489;SDS011;20730;49.372;7.324;2023-08-06T11:16:09;1.15;;;0.80;;
34489;SDS011;20730;49.372;7.324;2023-08-06T11:18:36;2.88;;;1.10;;
34489;SDS011;20730;49.372;7.324;2023-08-06T11:21:03;0.85;;;0.63;;
34489;SDS011;20730;49.372;7.324;2023-08-06T11:23:29;2.45;;;0.80;;
34489;SDS011;20730;49.372;7.324;2023-08-06T11:25:57;0.73;;;0.55;;
34489;SDS011;20730;49.372;7.324;2023-08-06T11:28:24;1.05;;;0.60;;
34489;SDS011;20730;49.372;7.324;2023-08-06T11:30:51;0.98;;;0.50;;
34489;SDS011;20730;49.372;7.324;2023-08-06T11:33:24;2.38;;;0.60;;
34489;SDS011;20730;49.372;7.324;2023-08-06T11:35:52;0.73;;;0.60;;
34489;SDS011;20730;49.372;7.324;2023-08-06T11:38:27;0.90;;;0.90;;
34489;SDS011;20730;49.372;7.324;2023-08-06T11:40:54;1.17;;;0.80;;
34489;SDS011;20730;49.372;7.324;2023-08-06T11:43:21;2.10;;;0.70;;
34489;SDS011;20730;49.372;7.324;2023-08-06T11:45:49;1.58;;;0.98;;
34489;SDS011;20730;49.372;7.324;2023-08-06T11:48:17;1.88;;;1.20;;
34489;SDS011;20730;49.372;7.324;2023-08-06T11:50:44;1.55;;;0.80;;
34489;SDS011;20730;49.372;7.324;2023-08-06T11:53:12;2.38;;;0.93;;
34489;SDS011;20730;49.372;7.324;2023-08-06T11:55:40;1.30;;;0.80;;
34489;SDS011;20730;49.372;7.324;2023-08-06T11:58:09;6.80;;;0.60;;
34489;SDS011;20730;49.372;7.324;2023-08-06T12:00:36;0.85;;;0.80;;
34489;SDS011;20730;49.372;7.324;2023-08-06T12:03:05;3.95;;;1.05;;
34489;SDS011;20730;49.372;7.324;2023-08-06T12:05:32;1.33;;;0.95;;
34489;SDS011;20730;49.372;7.324;2023-08-06T12:08:00;1.65;;;0.60;;
34489;SDS011;20730;49.372;7.324;2023-08-06T12:10:28;1.27;;;0.80;;
34489;SDS011;20730;49.372;7.324;2023-08-06T12:12:56;1.42;;;0.43;;
34489;SDS011;20730;49.372;7.324;2023-08-06T12:15:23;1.30;;;0.60;;
34489;SDS011;20730;49.372;7.324;2023-08-06T12:17:50;0.95;;;0.50;;
34489;SDS011;20730;49.372;7.324;2023-08-06T12:20:17;3.65;;;0.70;;
34489;SDS011;20730;49.372;7.324;2023-08-06T12:22:44;1.10;;;0.70;;
34489;SDS011;20730;49.372;7.324;2023-08-06T12:25:12;1.83;;;0.70;;
34489;SDS011;20730;49.372;7.324;2023-08-06T12:27:42;1.05;;;0.60;;
34489;SDS011;20730;49.372;7.324;2023-08-06T12:30:11;2.55;;;0.73;;
34489;SDS011;20730;49.372;7.324;2023-08-06T12:32:38;1.50;;;0.60;;
34489;SDS011;20730;49.372;7.324;2023-08-06T12:35:05;0.88;;;0.60;;
34489;SDS011;20730;49.372;7.324;2023-08-06T12:37:34;1.20;;;0.52;;
34489;SDS011;20730;49.372;7.324;2023-08-06T12:40:00;1.25;;;0.60;;
34489;SDS011;20730;49.372;7.324;2023-08-06T12:42:45;1.23;;;0.70;;
34489;SDS011;20730;49.372;7.324;2023-08-06T12:45:12;0.52;;;0.52;;
34489;SDS011;20730;49.372;7.324;2023-08-06T12:47:39;2.70;;;0.70;;
34489;SDS011;20730;49.372;7.324;2023-08-06T12:50:05;2.22;;;1.20;;
34489;SDS011;20730;49.372;7.324;2023-08-06T12:52:34;1.23;;;0.70;;
34489;SDS011;20730;49.372;7.324;2023-08-06T12:55:01;0.65;;;0.60;;
34489;SDS011;20730;49.372;7.324;2023-08-06T12:57:28;2.72;;;1.10;;
34489;SDS011;20730;49.372;7.324;2023-08-06T13:00:13;0.88;;;0.60;;
34489;SDS011;20730;49.372;7.324;2023-08-06T13:02:39;2.03;;;0.70;;
34489;SDS011;20730;49.372;7.324;2023-08-06T13:05:06;2.10;;;0.70;;
34489;SDS011;20730;49.372;7.324;2023-08-06T13:07:33;1.85;;;0.70;;
34489;SDS011;20730;49.372;7.324;2023-08-06T13:10:00;0.80;;;0.50;;
34489;SDS011;20730;49.372;7.324;2023-08-06T13:12:27;0.52;;;0.50;;
34489;SDS011;20730;49.372;7.324;2023-08-06T13:14:53;1.30;;;0.63;;
34489;SDS011;20730;49.372;7.324;2023-08-06T13:17:23;2.47;;;0.70;;
34489;SDS011;20730;49.372;7.324;2023-08-06T13:19:50;2.92;;;0.80;;
34489;SDS011;20730;49.372;7.324;2023-08-06T13:22:16;1.73;;;0.70;;
34489;SDS011;20730;49.372;7.324;2023-08-06T13:24:43;1.17;;;0.80;;
34489;SDS011;20730;49.372;7.324;2023-08-06T13:27:10;1.63;;;0.85;;
34489;SDS011;20730;49.372;7.324;2023-08-06T13:29:37;1.10;;;0.90;;
34489;SDS011;20730;49.372;7.324;2023-08-06T13:32:04;1.95;;;0.88;;
34489;SDS011;20730;49.372;7.324;2023-08-06T13:34:31;3.15;;;0.88;;
34489;SDS011;20730;49.372;7.324;2023-08-06T13:37:01;2.53;;;0.77;;
34489;SDS011;20730;49.372;7.324;2023-08-06T13:39:28;0.98;;;0.65;;
34489;SDS011;20730;49.372;7.324;2023-08-06T13:41:55;2.97;;;0.80;;
34489;SDS011;20730;49.372;7.324;2023-08-06T13:44:22;1.13;;;0.68;;
34489;SDS011;20730;49.372;7.324;2023-08-06T13:46:49;1.02;;;0.60;;
34489;SDS011;20730;49.372;7.324;2023-08-06T13:49:16;0.68;;;0.68;;
34489;SDS011;20730;49.372;7.324;2023-08-06T13:51:42;2.63;;;0.80;;
34489;SDS011;20730;49.372;7.324;2023-08-06T13:54:09;1.25;;;0.63;;
34489;SDS011;20730;49.372;7.324;2023-08-06T13:56:36;4.05;;;0.70;;
34489;SDS011;20730;49.372;7.324;2023-08-06T13:59:04;2.28;;;0.85;;
34489;SDS011;20730;49.372;7.324;2023-08-06T14:01:31;3.80;;;1.08;;
34489;SDS011;20730;49.372;7.324;2023-08-06T14:04:16;5.63;;;2.40;;
34489;SDS011;20730;49.372;7.324;2023-08-06T14:06:43;1.55;;;1.00;;
34489;SDS011;20730;49.372;7.324;2023-08-06T14:09:09;2.28;;;1.05;;
34489;SDS011;20730;49.372;7.324;2023-08-06T14:11:38;3.30;;;1.13;;
34489;SDS011;20730;49.372;7.324;2023-08-06T14:14:05;3.35;;;0.77;;
34489;SDS011;20730;49.372;7.324;2023-08-06T14:16:32;2.70;;;0.80;;
34489;SDS011;20730;49.372;7.324;2023-08-06T14:18:58;1.20;;;0.95;;
34489;SDS011;20730;49.372;7.324;2023-08-06T14:21:25;1.58;;;0.80;;
34489;SDS011;20730;49.372;7.324;2023-08-06T14:23:52;1.65;;;0.70;;
34489;SDS011;20730;49.372;7.324;2023-08-06T14:26:18;1.85;;;0.98;;
34489;SDS011;20730;49.372;7.324;2023-08-06T14:28:45;3.67;;;1.10;;
34489;SDS011;20730;49.372;7.324;2023-08-06T14:31:12;1.05;;;0.80;;
34489;SDS011;20730;49.372;7.324;2023-08-06T14:33:39;1.63;;;0.90;;
34489;SDS011;20730;49.372;7.324;2023-08-06T14:36:05;1.95;;;0.90;;
34489;SDS011;20730;49.372;7.324;2023-08-06T14:38:32;1.35;;;0.80;;
34489;SDS011;20730;49.372;7.324;2023-08-06T14:41:06;2.28;;;0.90;;
34489;SDS011;20730;49.372;7.324;2023-08-06T14:43:33;2.28;;;1.25;;
34489;SDS011;20730;49.372;7.324;2023-08-06T14:45:59;3.30;;;1.10;;
34489;SDS011;20730;49.372;7.324;2023-08-06T14:48:26;2.53;;;1.20;;
34489;SDS011;20730;49.372;7.324;2023-08-06T14:50:53;1.25;;;0.80;;
34489;SDS011;20730;49.372;7.324;2023-08-06T14:53:21;1.17;;;0.70;;
34489;SDS011;20730;49.372;7.324;2023-08-06T14:55:47;0.77;;;0.77;;
34489;SDS011;20730;49.372;7.324;2023-08-06T14:58:14;0.73;;;0.52;;
34489;SDS011;20730;49.372;7.324;2023-08-06T15:00:41;1.70;;;0.80;;
34489;SDS011;20730;49.372;7.324;2023-08-06T15:03:08;1.85;;;0.90;;
34489;SDS011;20730;49.372;7.324;2023-08-06T15:05:34;1.27;;;0.60;;
34489;SDS011;20730;49.372;7.324;2023-08-06T15:08:01;1.70;;;0.60;;